• Join FlightAware (Why Join?)
  • Login
  • US Flag 
04:10AM EDT


 

Airport Tracker/Info


-or-


 

Live Flight TrackerFlight Track Log ✈ KAP29 ✈ 06-Jun-2013 ✈ KBOS - KSLK

Flight Track Log - Related Links

Times and Time Zones

All times are in EDT time to prevent confusion due to time zone crossing. See the KAP29 flight status page for this flight to view local times or setup timezone preferences in your user account.

Time Position Orientation Groundspeed Altitude Reporting Facility
EDT Latitude Longitude Course Direction KTS MPH feet Rate Location/Type
01:41PM 42.3833 -71.0000 360° North 103 119 400  Level KA90
01:42PM 42.4000 -71.0000 360° North 137 158 900 960 Climbing KA90
01:43PM 42.4333 -71.0333 324° Northwest 135 155 2,100 960 Climbing KA90
01:44PM 42.4667 -71.0500 340° North 138 159 3,000 900 Climbing KA90
01:45PM 42.5000 -71.0667 340° North 145 167 3,900 900 Climbing KA90
01:46PM 42.5333 -71.1000 324° Northwest 145 167 4,800 900 Climbing KA90
01:47PM 42.5667 -71.1333 324° Northwest 146 168 5,700 900 Climbing KA90
01:48PM 42.6000 -71.1667 324° Northwest 148 170 6,600 840 Climbing KA90
01:49PM 42.6333 -71.2000 324° Northwest 146 168 7,500 660 Climbing KA90
01:50PM 42.6833 -71.2167 346° North 161 185 8,000 180 Climbing KA90
01:51PM 42.7333 -71.2667 324° Northwest 173 199 8,000  Level KA90
01:52PM 42.7667 -71.3000 324° Northwest 182 209 8,000  Level KA90
01:53PM 42.8167 -71.3333 334° Northwest 186 214 8,000  Level KA90
01:54PM 42.8500 -71.3667 324° Northwest 185 213 8,000  Level KA90
01:55PM 42.8833 -71.4000 324° Northwest 182 209 8,000  Level KA90
01:56PM 42.9167 -71.4500 312° West 182 209 8,000  Level KA90
01:56PM 42.9403 -71.4844 313° West 179 206 8,000  Level Boston Center
01:57PM 42.9719 -71.5292 314° West 179 206 8,000  Level Boston Center
01:58PM 43.0056 -71.5769 314° West 174 200 8,100  Climbing Boston Center
01:59PM 43.0394 -71.6278 312° West 174 200 8,000  Descending Boston Center
02:00PM 43.0731 -71.6756 314° West 174 200 8,100  Climbing Boston Center
02:01PM 43.1047 -71.7206 314° West 179 206 8,100  Level Boston Center
02:02PM 43.1383 -71.7714 312° West 179 206 8,100  Level Boston Center
02:03PM 43.1697 -71.8167 314° West 179 206 8,100  Level Boston Center
02:04PM 43.2033 -71.8647 314° West 180 207 8,100  Level Boston Center
02:05PM 43.2306 -71.9044 313° West 180 207 8,100  Level Boston Center
02:06PM 43.2706 -71.9639 313° West 185 213 8,100  Level Boston Center
02:07PM 43.3019 -72.0122 312° West 185 213 8,100  Level Boston Center
02:08PM 43.3356 -72.0606 314° West 185 213 8,100  Level Boston Center
02:09PM 43.3689 -72.1089 314° West 180 207 8,100  Level Boston Center
02:10PM 43.4025 -72.1572 314° West 180 207 8,100  Level Boston Center
02:11PM 43.4358 -72.2086 312° West 180 207 8,100  Level Boston Center
02:12PM 43.4672 -72.2569 312° West 180 207 8,100  Level Boston Center
02:13PM 43.4986 -72.3056 312° West 180 207 8,100  Level Boston Center
02:14PM 43.5300 -72.3514 313° West 180 207 8,100  Level Boston Center
02:15PM 43.5653 -72.4000 315° West 180 207 8,100  Level Boston Center
02:16PM 43.5986 -72.4486 313° West 180 207 8,100  Level Boston Center
02:17PM 43.6300 -72.4975 312° West 180 207 8,100  Level Boston Center
02:18PM 43.6569 -72.5378 313° West 180 207 8,100  Level Boston Center
02:19PM 43.6967 -72.5981 312° West 180 207 8,100  Level Boston Center
02:20PM 43.7236 -72.6356 315° West 180 207 8,100  Level Boston Center
02:21PM 43.7589 -72.6872 313° West 180 207 8,100  Level Boston Center
02:22PM 43.7900 -72.7392 310° West 180 207 8,100  Level Boston Center
02:23PM 43.8314 -72.8028 312° West 180 207 8,100  Level Boston Center
02:24PM 43.8647 -72.8519 313° West 180 207 8,100  Level Boston Center
02:25PM 43.8978 -72.9011 313° West 175 201 8,100  Level Boston Center
02:26PM 43.9289 -72.9475 313° West 175 201 8,100  Level Boston Center
02:27PM 43.9619 -72.9997 311° West 175 201 8,100  Level Boston Center
02:28PM 43.9950 -73.0489 313° West 175 201 8,100  Level Boston Center
02:29PM 44.0281 -73.1014 311° West 175 201 8,100 -240 Level Boston Center
02:30PM 44.0611 -73.1508 313° West 180 207 7,700 -420 Descending Boston Center
02:31PM 44.0942 -73.2031 311° West 191 220 7,300 -300 Descending Boston Center
02:32PM 44.1314 -73.2586 313° West 191 220 7,100 -120 Descending Boston Center
02:33PM 44.1664 -73.3111 313° West 186 214 7,100  Level Boston Center
02:35PM 44.2033 -73.3697 311° West 181 208 7,100  Level Boston Center
02:36PM 44.2406 -73.4253 313° West 176 203 7,100  Level Boston Center
02:37PM 44.2733 -73.4781 311° West 176 203 7,100  Level Boston Center
02:38PM 44.3042 -73.5308 309° West 170 196 7,100  Level Boston Center
02:39PM 44.3369 -73.5778 314° West 170 196 7,100 -120 Level Boston Center
02:40PM 44.3781 -73.6397 313° West 175 201 6,900 -300 Descending Boston Center
02:41PM 44.4128 -73.6928 313° West 180 207 6,500 -360 Descending Boston Center
02:42PM 44.4497 -73.7486 313° West 186 214 6,200 -240 Descending Boston Center
02:43PM 44.4844 -73.8047 311° West 191 220 6,100 -60 Descending Boston Center
02:44PM 44.5153 -73.8492 314° West 180 207 6,100  Level Boston Center
02:45PM 44.5436 -73.9022 307° West 180 207 6,100  Level Boston Center
02:46PM 44.5597 -73.9639 290° West 166 191 6,100 -300 Level Boston Center
02:47PM 44.5608 -74.0250 271° West 161 185 5,600 -540 Descending Boston Center
02:48PM 44.5292 -74.0650 222° Southwest 150 173 5,100 -600 Descending Boston Center
02:49PM 44.4931 -74.1019 216° Southwest 162 186 4,400 -660 Descending Boston Center
02:50PM 44.4614 -74.1328 215° Southwest 162 186 3,800 -900 Descending Boston Center
02:51PM 44.4233 -74.1725 217° Southwest 162 186 2,700 -660 Descending Boston Center
02:52PM 44.3958 -74.1978 213° Southwest 157 181 2,500 2,100 Descending Boston Center
02:53PM 44.3514 -74.2400 214° Southwest 157 181 7,000 2,220 Climbing Boston Center
02:54PM 44.3133 -74.2739 213° Southwest 157 181 7,000  Level Boston Center
02:55PM 44.2775 -74.3103 216° Southwest 157 181 7,000  Level Boston Center
02:56PM 44.3936 -74.2094 32° Northeast 157 181 7,000  Level Boston Center
02:57PM 44.3828 -74.2322 236° Southwest 157 181 7,000  Level Boston Center
02:58PM 44.3614 -74.2753 235° Southwest 157 181 7,000  Level Boston Center
02:59PM 44.3397 -74.3181 235° Southwest 157 181 7,000  Level Boston Center
03:00PM 44.3311 -74.3353 235° Southwest 157 181 7,000  Level Boston Center
03:01PM 44.3811 -74.2033 62° Northeast 157 181 7,000  Level Boston Center
03:02PM 44.3725 -74.2203 235° Southwest 157 181 7,000  Level Boston Center
03:03PM 44.3467 -74.2719 235° Southwest 157 181 7,000  Level Boston Center
03:04PM 44.3253 -74.3147 235° Southwest 157 181 7,000  Level Boston Center